sensor_id;sensor_type;location;lat;lon;timestamp;P1;durP1;ratioP1;P2;durP2;ratioP2
51521;SDS011;37608;39.766;2.718;2022-08-18T00:02:24;11.07;;;4.03;;
51521;SDS011;37608;39.766;2.718;2022-08-18T00:04:50;5.75;;;3.50;;
51521;SDS011;37608;39.766;2.718;2022-08-18T00:07:20;15.30;;;4.97;;
51521;SDS011;37608;39.766;2.718;2022-08-18T00:09:46;7.75;;;4.07;;
51521;SDS011;37608;39.766;2.718;2022-08-18T00:12:13;4.10;;;2.38;;
51521;SDS011;37608;39.766;2.718;2022-08-18T00:14:39;17.50;;;5.43;;
51521;SDS011;37608;39.766;2.718;2022-08-18T00:17:04;21.83;;;5.38;;
51521;SDS011;37608;39.766;2.718;2022-08-18T00:19:30;17.08;;;4.72;;
51521;SDS011;37608;39.766;2.718;2022-08-18T00:21:55;28.50;;;6.00;;
51521;SDS011;37608;39.766;2.718;2022-08-18T00:24:21;15.00;;;5.70;;
51521;SDS011;37608;39.766;2.718;2022-08-18T00:26:47;40.85;;;7.97;;
51521;SDS011;37608;39.766;2.718;2022-08-18T00:29:12;37.55;;;11.88;;
51521;SDS011;37608;39.766;2.718;2022-08-18T00:31:38;13.10;;;7.05;;
51521;SDS011;37608;39.766;2.718;2022-08-18T00:34:03;15.38;;;7.75;;
51521;SDS011;37608;39.766;2.718;2022-08-18T00:36:30;19.48;;;8.02;;
51521;SDS011;37608;39.766;2.718;2022-08-18T00:38:57;19.52;;;8.70;;
51521;SDS011;37608;39.766;2.718;2022-08-18T00:41:22;10.57;;;4.47;;
51521;SDS011;37608;39.766;2.718;2022-08-18T00:43:50;12.73;;;6.45;;
51521;SDS011;37608;39.766;2.718;2022-08-18T00:46:23;7.03;;;3.88;;
51521;SDS011;37608;39.766;2.718;2022-08-18T00:48:49;11.45;;;4.32;;
51521;SDS011;37608;39.766;2.718;2022-08-18T00:53:51;14.63;;;4.70;;
51521;SDS011;37608;39.766;2.718;2022-08-18T00:56:18;6.55;;;3.90;;
51521;SDS011;37608;39.766;2.718;2022-08-18T00:58:48;7.57;;;3.33;;
51521;SDS011;37608;39.766;2.718;2022-08-18T01:01:15;7.55;;;3.67;;
51521;SDS011;37608;39.766;2.718;2022-08-18T01:03:40;5.78;;;3.65;;
51521;SDS011;37608;39.766;2.718;2022-08-18T01:06:14;14.65;;;4.78;;
51521;SDS011;37608;39.766;2.718;2022-08-18T01:08:40;8.75;;;3.53;;
51521;SDS011;37608;39.766;2.718;2022-08-18T01:11:06;4.55;;;2.92;;
51521;SDS011;37608;39.766;2.718;2022-08-18T01:13:32;9.65;;;2.20;;
51521;SDS011;37608;39.766;2.718;2022-08-18T01:15:59;10.27;;;2.75;;
51521;SDS011;37608;39.766;2.718;2022-08-18T01:18:45;4.72;;;2.97;;
51521;SDS011;37608;39.766;2.718;2022-08-18T01:21:29;8.15;;;2.97;;
51521;SDS011;37608;39.766;2.718;2022-08-18T01:24:14;8.38;;;3.00;;
51521;SDS011;37608;39.766;2.718;2022-08-18T01:26:40;4.05;;;2.15;;
51521;SDS011;37608;39.766;2.718;2022-08-18T01:29:14;7.45;;;3.58;;
51521;SDS011;37608;39.766;2.718;2022-08-18T01:31:43;11.65;;;2.15;;
51521;SDS011;37608;39.766;2.718;2022-08-18T01:34:10;7.88;;;3.85;;
51521;SDS011;37608;39.766;2.718;2022-08-18T01:36:36;16.45;;;3.38;;
51521;SDS011;37608;39.766;2.718;2022-08-18T01:39:04;16.35;;;4.53;;
51521;SDS011;37608;39.766;2.718;2022-08-18T01:41:30;5.78;;;3.13;;
51521;SDS011;37608;39.766;2.718;2022-08-18T01:43:55;8.38;;;3.85;;
51521;SDS011;37608;39.766;2.718;2022-08-18T01:46:22;10.52;;;3.78;;
51521;SDS011;37608;39.766;2.718;2022-08-18T01:48:48;5.35;;;3.08;;
51521;SDS011;37608;39.766;2.718;2022-08-18T01:51:14;3.45;;;3.00;;
51521;SDS011;37608;39.766;2.718;2022-08-18T01:53:40;5.85;;;2.67;;
51521;SDS011;37608;39.766;2.718;2022-08-18T01:56:06;10.07;;;3.83;;
51521;SDS011;37608;39.766;2.718;2022-08-18T01:58:32;5.30;;;2.90;;
51521;SDS011;37608;39.766;2.718;2022-08-18T02:00:58;5.45;;;3.22;;
51521;SDS011;37608;39.766;2.718;2022-08-18T02:03:33;9.88;;;3.53;;
51521;SDS011;37608;39.766;2.718;2022-08-18T02:06:00;22.08;;;4.88;;
51521;SDS011;37608;39.766;2.718;2022-08-18T02:08:26;10.95;;;3.80;;
51521;SDS011;37608;39.766;2.718;2022-08-18T02:10:51;15.00;;;6.60;;
51521;SDS011;37608;39.766;2.718;2022-08-18T02:13:17;18.55;;;6.93;;
51521;SDS011;37608;39.766;2.718;2022-08-18T02:15:43;9.40;;;4.85;;
51521;SDS011;37608;39.766;2.718;2022-08-18T02:18:15;7.20;;;3.45;;
51521;SDS011;37608;39.766;2.718;2022-08-18T02:20:40;4.72;;;2.42;;
51521;SDS011;37608;39.766;2.718;2022-08-18T02:23:05;4.72;;;2.97;;
51521;SDS011;37608;39.766;2.718;2022-08-18T02:25:31;2.70;;;1.45;;
51521;SDS011;37608;39.766;2.718;2022-08-18T02:27:56;3.55;;;2.13;;
51521;SDS011;37608;39.766;2.718;2022-08-18T02:30:22;3.30;;;1.35;;
51521;SDS011;37608;39.766;2.718;2022-08-18T02:32:47;2.38;;;1.00;;
51521;SDS011;37608;39.766;2.718;2022-08-18T02:35:12;4.88;;;2.45;;
51521;SDS011;37608;39.766;2.718;2022-08-18T02:37:41;3.15;;;2.30;;
51521;SDS011;37608;39.766;2.718;2022-08-18T02:40:07;3.05;;;1.83;;
51521;SDS011;37608;39.766;2.718;2022-08-18T02:42:32;2.67;;;1.95;;
51521;SDS011;37608;39.766;2.718;2022-08-18T02:44:58;5.57;;;2.42;;
51521;SDS011;37608;39.766;2.718;2022-08-18T02:47:23;3.55;;;3.22;;
51521;SDS011;37608;39.766;2.718;2022-08-18T02:49:49;3.72;;;3.35;;
51521;SDS011;37608;39.766;2.718;2022-08-18T02:52:15;7.28;;;3.42;;
51521;SDS011;37608;39.766;2.718;2022-08-18T02:54:41;4.53;;;4.13;;
51521;SDS011;37608;39.766;2.718;2022-08-18T02:57:10;4.05;;;3.47;;
51521;SDS011;37608;39.766;2.718;2022-08-18T02:59:36;12.30;;;3.83;;
51521;SDS011;37608;39.766;2.718;2022-08-18T03:02:03;4.55;;;3.25;;
51521;SDS011;37608;39.766;2.718;2022-08-18T03:04:29;9.63;;;5.03;;
51521;SDS011;37608;39.766;2.718;2022-08-18T03:06:55;5.32;;;4.55;;
51521;SDS011;37608;39.766;2.718;2022-08-18T03:09:21;8.40;;;4.82;;
51521;SDS011;37608;39.766;2.718;2022-08-18T03:11:46;6.60;;;3.75;;
51521;SDS011;37608;39.766;2.718;2022-08-18T03:14:12;5.90;;;4.60;;
51521;SDS011;37608;39.766;2.718;2022-08-18T03:16:38;6.05;;;4.05;;
51521;SDS011;37608;39.766;2.718;2022-08-18T03:19:04;16.63;;;4.88;;
51521;SDS011;37608;39.766;2.718;2022-08-18T03:21:30;5.88;;;3.92;;
51521;SDS011;37608;39.766;2.718;2022-08-18T03:23:59;3.17;;;2.83;;
51521;SDS011;37608;39.766;2.718;2022-08-18T03:26:24;4.32;;;3.20;;
51521;SDS011;37608;39.766;2.718;2022-08-18T03:28:50;8.45;;;5.25;;
51521;SDS011;37608;39.766;2.718;2022-08-18T03:31:16;3.80;;;3.40;;
51521;SDS011;37608;39.766;2.718;2022-08-18T03:33:42;6.63;;;4.68;;
51521;SDS011;37608;39.766;2.718;2022-08-18T03:36:09;4.80;;;3.10;;
51521;SDS011;37608;39.766;2.718;2022-08-18T03:38:36;9.85;;;2.30;;
51521;SDS011;37608;39.766;2.718;2022-08-18T03:41:02;4.72;;;2.05;;
51521;SDS011;37608;39.766;2.718;2022-08-18T03:43:27;1.83;;;1.55;;
51521;SDS011;37608;39.766;2.718;2022-08-18T03:45:53;5.88;;;2.72;;
51521;SDS011;37608;39.766;2.718;2022-08-18T03:48:19;1.95;;;1.45;;
51521;SDS011;37608;39.766;2.718;2022-08-18T03:50:45;3.03;;;2.03;;
51521;SDS011;37608;39.766;2.718;2022-08-18T03:53:11;5.43;;;2.42;;
51521;SDS011;37608;39.766;2.718;2022-08-18T03:55:39;10.93;;;4.07;;
51521;SDS011;37608;39.766;2.718;2022-08-18T03:58:04;3.05;;;2.47;;
51521;SDS011;37608;39.766;2.718;2022-08-18T04:00:30;5.75;;;3.80;;
51521;SDS011;37608;39.766;2.718;2022-08-18T04:02:57;6.75;;;3.58;;
51521;SDS011;37608;39.766;2.718;2022-08-18T04:05:24;3.08;;;2.70;;
51521;SDS011;37608;39.766;2.718;2022-08-18T04:07:49;3.35;;;2.50;;
51521;SDS011;37608;39.766;2.718;2022-08-18T04:10:14;5.25;;;3.45;;
51521;SDS011;37608;39.766;2.718;2022-08-18T04:12:40;6.80;;;3.95;;
51521;SDS011;37608;39.766;2.718;2022-08-18T04:15:06;10.15;;;4.82;;
51521;SDS011;37608;39.766;2.718;2022-08-18T04:17:33;5.22;;;3.65;;
51521;SDS011;37608;39.766;2.718;2022-08-18T04:19:58;5.50;;;3.95;;
51521;SDS011;37608;39.766;2.718;2022-08-18T04:22:24;4.65;;;2.97;;
51521;SDS011;37608;39.766;2.718;2022-08-18T04:24:49;6.95;;;3.70;;
51521;SDS011;37608;39.766;2.718;2022-08-18T04:27:15;5.55;;;3.20;;
51521;SDS011;37608;39.766;2.718;2022-08-18T04:29:40;6.15;;;3.72;;
51521;SDS011;37608;39.766;2.718;2022-08-18T04:32:06;4.75;;;3.50;;
51521;SDS011;37608;39.766;2.718;2022-08-18T04:34:31;5.30;;;3.55;;
51521;SDS011;37608;39.766;2.718;2022-08-18T04:36:57;6.25;;;2.47;;
51521;SDS011;37608;39.766;2.718;2022-08-18T04:39:22;6.72;;;3.72;;
51521;SDS011;37608;39.766;2.718;2022-08-18T04:41:48;3.30;;;2.53;;
51521;SDS011;37608;39.766;2.718;2022-08-18T04:44:14;4.35;;;3.58;;
51521;SDS011;37608;39.766;2.718;2022-08-18T04:46:42;4.78;;;3.42;;
51521;SDS011;37608;39.766;2.718;2022-08-18T04:49:09;22.27;;;3.58;;
51521;SDS011;37608;39.766;2.718;2022-08-18T04:51:34;5.88;;;4.28;;
51521;SDS011;37608;39.766;2.718;2022-08-18T04:54:00;5.82;;;3.53;;
51521;SDS011;37608;39.766;2.718;2022-08-18T04:56:26;6.90;;;4.53;;
51521;SDS011;37608;39.766;2.718;2022-08-18T04:58:53;5.63;;;4.03;;
51521;SDS011;37608;39.766;2.718;2022-08-18T05:01:20;11.93;;;4.00;;
51521;SDS011;37608;39.766;2.718;2022-08-18T05:03:46;4.80;;;3.25;;
51521;SDS011;37608;39.766;2.718;2022-08-18T05:06:11;6.95;;;3.33;;
51521;SDS011;37608;39.766;2.718;2022-08-18T05:08:37;4.97;;;3.40;;
51521;SDS011;37608;39.766;2.718;2022-08-18T05:11:02;9.82;;;3.90;;
51521;SDS011;37608;39.766;2.718;2022-08-18T05:13:27;4.32;;;2.85;;
51521;SDS011;37608;39.766;2.718;2022-08-18T05:15:53;7.25;;;3.92;;
51521;SDS011;37608;39.766;2.718;2022-08-18T05:18:20;5.95;;;3.88;;
51521;SDS011;37608;39.766;2.718;2022-08-18T05:20:48;8.15;;;4.13;;
51521;SDS011;37608;39.766;2.718;2022-08-18T05:23:14;7.05;;;3.40;;
51521;SDS011;37608;39.766;2.718;2022-08-18T05:25:41;5.50;;;3.20;;
51521;SDS011;37608;39.766;2.718;2022-08-18T05:28:06;3.90;;;2.83;;
51521;SDS011;37608;39.766;2.718;2022-08-18T05:30:33;7.53;;;4.07;;
51521;SDS011;37608;39.766;2.718;2022-08-18T05:32:59;6.75;;;3.70;;
51521;SDS011;37608;39.766;2.718;2022-08-18T05:35:28;20.58;;;18.65;;
51521;SDS011;37608;39.766;2.718;2022-08-18T05:38:02;8.43;;;6.72;;
51521;SDS011;37608;39.766;2.718;2022-08-18T05:40:29;8.23;;;4.78;;
51521;SDS011;37608;39.766;2.718;2022-08-18T05:42:56;4.18;;;3.13;;
51521;SDS011;37608;39.766;2.718;2022-08-18T05:45:23;5.55;;;3.60;;
51521;SDS011;37608;39.766;2.718;2022-08-18T05:47:48;4.55;;;3.15;;
51521;SDS011;37608;39.766;2.718;2022-08-18T05:50:16;4.95;;;2.70;;
51521;SDS011;37608;39.766;2.718;2022-08-18T05:52:46;10.45;;;3.05;;
51521;SDS011;37608;39.766;2.718;2022-08-18T05:55:14;6.65;;;2.33;;
51521;SDS011;37608;39.766;2.718;2022-08-18T05:58:03;5.43;;;3.15;;
51521;SDS011;37608;39.766;2.718;2022-08-18T06:00:30;6.28;;;3.65;;
51521;SDS011;37608;39.766;2.718;2022-08-18T06:02:57;11.32;;;3.50;;
51521;SDS011;37608;39.766;2.718;2022-08-18T06:05:28;22.30;;;17.17;;
51521;SDS011;37608;39.766;2.718;2022-08-18T06:08:02;17.45;;;9.90;;
51521;SDS011;37608;39.766;2.718;2022-08-18T06:10:30;5.03;;;3.75;;
51521;SDS011;37608;39.766;2.718;2022-08-18T06:12:59;6.00;;;3.88;;
51521;SDS011;37608;39.766;2.718;2022-08-18T06:15:29;4.22;;;3.65;;
51521;SDS011;37608;39.766;2.718;2022-08-18T06:28:02;9.27;;;2.83;;
51521;SDS011;37608;39.766;2.718;2022-08-18T06:36:05;13.93;;;9.55;;
51521;SDS011;37608;39.766;2.718;2022-08-18T06:43:33;6.45;;;3.05;;
51521;SDS011;37608;39.766;2.718;2022-08-18T06:46:02;3.63;;;2.47;;
51521;SDS011;37608;39.766;2.718;2022-08-18T06:48:36;4.90;;;2.30;;
51521;SDS011;37608;39.766;2.718;2022-08-18T06:51:05;3.75;;;2.40;;
51521;SDS011;37608;39.766;2.718;2022-08-18T06:56:40;8.50;;;4.43;;
51521;SDS011;37608;39.766;2.718;2022-08-18T07:01:45;8.93;;;4.03;;
51521;SDS011;37608;39.766;2.718;2022-08-18T07:04:28;13.73;;;4.75;;
51521;SDS011;37608;39.766;2.718;2022-08-18T07:06:54;5.65;;;3.60;;
51521;SDS011;37608;39.766;2.718;2022-08-18T07:09:23;7.68;;;4.25;;
51521;SDS011;37608;39.766;2.718;2022-08-18T07:12:00;11.55;;;5.60;;
51521;SDS011;37608;39.766;2.718;2022-08-18T07:14:26;7.68;;;4.78;;
51521;SDS011;37608;39.766;2.718;2022-08-18T07:17:26;13.43;;;4.25;;
51521;SDS011;37608;39.766;2.718;2022-08-18T07:19:53;6.70;;;4.68;;
51521;SDS011;37608;39.766;2.718;2022-08-18T07:22:18;5.95;;;3.78;;
51521;SDS011;37608;39.766;2.718;2022-08-18T07:24:48;12.45;;;6.93;;
51521;SDS011;37608;39.766;2.718;2022-08-18T07:27:15;17.90;;;15.35;;
51521;SDS011;37608;39.766;2.718;2022-08-18T07:30:04;11.23;;;7.43;;
51521;SDS011;37608;39.766;2.718;2022-08-18T07:32:38;32.17;;;9.35;;
51521;SDS011;37608;39.766;2.718;2022-08-18T07:35:05;6.20;;;5.60;;
51521;SDS011;37608;39.766;2.718;2022-08-18T07:37:31;7.93;;;5.32;;
51521;SDS011;37608;39.766;2.718;2022-08-18T07:40:03;4.90;;;4.28;;
51521;SDS011;37608;39.766;2.718;2022-08-18T07:42:36;5.43;;;4.18;;
51521;SDS011;37608;39.766;2.718;2022-08-18T07:47:38;5.05;;;3.78;;
51521;SDS011;37608;39.766;2.718;2022-08-18T07:50:09;9.77;;;6.10;;
51521;SDS011;37608;39.766;2.718;2022-08-18T07:52:39;14.90;;;6.93;;
51521;SDS011;37608;39.766;2.718;2022-08-18T08:00:06;16.52;;;4.55;;
51521;SDS011;37608;39.766;2.718;2022-08-18T08:05:20;6.15;;;5.35;;
51521;SDS011;37608;39.766;2.718;2022-08-18T08:10:38;4.68;;;3.58;;
51521;SDS011;37608;39.766;2.718;2022-08-18T08:15:39;3.42;;;3.13;;
51521;SDS011;37608;39.766;2.718;2022-08-18T08:36:33;3.03;;;2.00;;
51521;SDS011;37608;39.766;2.718;2022-08-18T08:39:04;8.00;;;1.75;;
51521;SDS011;37608;39.766;2.718;2022-08-18T08:44:09;3.77;;;2.17;;
51521;SDS011;37608;39.766;2.718;2022-08-18T08:46:44;2.55;;;2.00;;
51521;SDS011;37608;39.766;2.718;2022-08-18T08:51:57;5.97;;;3.17;;
51521;SDS011;37608;39.766;2.718;2022-08-18T08:54:37;5.57;;;3.47;;
51521;SDS011;37608;39.766;2.718;2022-08-18T08:57:03;4.60;;;2.47;;
51521;SDS011;37608;39.766;2.718;2022-08-18T08:59:29;2.10;;;1.50;;
51521;SDS011;37608;39.766;2.718;2022-08-18T09:05:12;3.00;;;2.42;;
51521;SDS011;37608;39.766;2.718;2022-08-18T09:18:02;3.78;;;1.98;;
51521;SDS011;37608;39.766;2.718;2022-08-18T09:23:15;8.93;;;3.20;;
51521;SDS011;37608;39.766;2.718;2022-08-18T09:25:43;3.00;;;2.60;;
51521;SDS011;37608;39.766;2.718;2022-08-18T09:38:32;8.20;;;2.17;;
51521;SDS011;37608;39.766;2.718;2022-08-18T09:41:26;6.40;;;4.38;;
51521;SDS011;37608;39.766;2.718;2022-08-18T09:43:58;5.63;;;4.40;;
51521;SDS011;37608;39.766;2.718;2022-08-18T09:51:50;9.02;;;6.07;;
51521;SDS011;37608;39.766;2.718;2022-08-18T09:54:17;21.02;;;3.78;;
51521;SDS011;37608;39.766;2.718;2022-08-18T10:02:08;5.28;;;3.50;;
51521;SDS011;37608;39.766;2.718;2022-08-18T10:04:39;4.43;;;4.03;;
51521;SDS011;37608;39.766;2.718;2022-08-18T10:07:28;10.32;;;4.88;;
51521;SDS011;37608;39.766;2.718;2022-08-18T10:22:52;4.22;;;3.63;;
51521;SDS011;37608;39.766;2.718;2022-08-18T10:27:56;8.23;;;6.20;;
51521;SDS011;37608;39.766;2.718;2022-08-18T10:32:56;7.00;;;5.80;;
51521;SDS011;37608;39.766;2.718;2022-08-18T10:38:10;6.65;;;4.90;;
51521;SDS011;37608;39.766;2.718;2022-08-18T10:40:36;5.50;;;4.25;;
51521;SDS011;37608;39.766;2.718;2022-08-18T10:43:09;6.30;;;3.67;;
51521;SDS011;37608;39.766;2.718;2022-08-18T10:45:37;10.85;;;5.03;;
51521;SDS011;37608;39.766;2.718;2022-08-18T10:48:10;3.17;;;2.75;;
51521;SDS011;37608;39.766;2.718;2022-08-18T10:50:47;6.05;;;3.47;;
51521;SDS011;37608;39.766;2.718;2022-08-18T10:56:04;3.22;;;2.78;;
51521;SDS011;37608;39.766;2.718;2022-08-18T11:06:23;2.63;;;1.35;;
51521;SDS011;37608;39.766;2.718;2022-08-18T11:08:50;6.03;;;1.45;;
51521;SDS011;37608;39.766;2.718;2022-08-18T11:11:20;2.22;;;1.52;;
51521;SDS011;37608;39.766;2.718;2022-08-18T11:18:50;5.57;;;1.17;;
51521;SDS011;37608;39.766;2.718;2022-08-18T11:24:07;8.07;;;2.13;;
51521;SDS011;37608;39.766;2.718;2022-08-18T11:27:17;4.45;;;1.25;;
51521;SDS011;37608;39.766;2.718;2022-08-18T11:29:27;1.52;;;1.13;;
51521;SDS011;37608;39.766;2.718;2022-08-18T11:34:20;5.90;;;1.57;;
51521;SDS011;37608;39.766;2.718;2022-08-18T11:36:57;1.45;;;0.85;;
51521;SDS011;37608;39.766;2.718;2022-08-18T11:39:23;11.98;;;2.08;;
51521;SDS011;37608;39.766;2.718;2022-08-18T11:41:49;3.70;;;1.23;;
51521;SDS011;37608;39.766;2.718;2022-08-18T11:44:18;2.55;;;1.35;;
51521;SDS011;37608;39.766;2.718;2022-08-18T11:46:44;2.42;;;1.45;;
51521;SDS011;37608;39.766;2.718;2022-08-18T11:49:20;1.88;;;0.77;;
51521;SDS011;37608;39.766;2.718;2022-08-18T11:51:57;4.57;;;1.23;;
51521;SDS011;37608;39.766;2.718;2022-08-18T11:54:22;6.88;;;1.15;;
51521;SDS011;37608;39.766;2.718;2022-08-18T11:57:25;4.88;;;2.40;;
51521;SDS011;37608;39.766;2.718;2022-08-18T11:59:40;4.10;;;2.05;;
51521;SDS011;37608;39.766;2.718;2022-08-18T12:02:05;3.13;;;0.88;;
51521;SDS011;37608;39.766;2.718;2022-08-18T12:04:35;4.13;;;1.90;;
51521;SDS011;37608;39.766;2.718;2022-08-18T12:07:08;2.08;;;0.95;;
51521;SDS011;37608;39.766;2.718;2022-08-18T12:09:45;34.63;;;3.20;;
51521;SDS011;37608;39.766;2.718;2022-08-18T12:12:16;9.32;;;1.95;;
51521;SDS011;37608;39.766;2.718;2022-08-18T12:17:16;1.48;;;1.13;;
51521;SDS011;37608;39.766;2.718;2022-08-18T12:19:42;3.28;;;1.85;;
51521;SDS011;37608;39.766;2.718;2022-08-18T12:22:21;0.70;;;0.35;;
51521;SDS011;37608;39.766;2.718;2022-08-18T12:24:47;2.17;;;0.55;;
51521;SDS011;37608;39.766;2.718;2022-08-18T12:27:13;2.05;;;0.85;;
51521;SDS011;37608;39.766;2.718;2022-08-18T12:29:39;1.10;;;0.38;;
51521;SDS011;37608;39.766;2.718;2022-08-18T12:32:04;1.27;;;0.93;;
51521;SDS011;37608;39.766;2.718;2022-08-18T12:34:30;2.60;;;1.65;;
51521;SDS011;37608;39.766;2.718;2022-08-18T12:36:56;4.30;;;2.10;;
51521;SDS011;37608;39.766;2.718;2022-08-18T12:39:21;1.45;;;0.65;;
51521;SDS011;37608;39.766;2.718;2022-08-18T12:41:46;1.15;;;0.50;;
51521;SDS011;37608;39.766;2.718;2022-08-18T12:44:12;1.55;;;0.50;;
51521;SDS011;37608;39.766;2.718;2022-08-18T12:46:37;4.70;;;0.93;;
51521;SDS011;37608;39.766;2.718;2022-08-18T12:49:04;2.00;;;1.40;;
51521;SDS011;37608;39.766;2.718;2022-08-18T12:51:29;0.65;;;0.30;;
51521;SDS011;37608;39.766;2.718;2022-08-18T12:53:55;2.63;;;1.27;;
51521;SDS011;37608;39.766;2.718;2022-08-18T12:56:21;1.48;;;0.90;;
51521;SDS011;37608;39.766;2.718;2022-08-18T12:58:48;1.23;;;0.88;;
51521;SDS011;37608;39.766;2.718;2022-08-18T13:01:14;6.40;;;1.40;;
51521;SDS011;37608;39.766;2.718;2022-08-18T13:03:39;2.65;;;0.95;;
51521;SDS011;37608;39.766;2.718;2022-08-18T13:06:05;2.00;;;0.70;;
51521;SDS011;37608;39.766;2.718;2022-08-18T13:08:30;2.90;;;0.73;;
51521;SDS011;37608;39.766;2.718;2022-08-18T13:10:56;6.90;;;1.08;;
51521;SDS011;37608;39.766;2.718;2022-08-18T13:13:22;11.30;;;1.73;;
51521;SDS011;37608;39.766;2.718;2022-08-18T13:15:47;3.38;;;1.65;;
51521;SDS011;37608;39.766;2.718;2022-08-18T13:18:13;2.50;;;1.13;;
51521;SDS011;37608;39.766;2.718;2022-08-18T13:20:39;3.97;;;1.10;;
51521;SDS011;37608;39.766;2.718;2022-08-18T13:23:05;4.13;;;1.52;;
51521;SDS011;37608;39.766;2.718;2022-08-18T13:25:30;1.42;;;0.88;;
51521;SDS011;37608;39.766;2.718;2022-08-18T13:27:55;11.18;;;3.83;;
51521;SDS011;37608;39.766;2.718;2022-08-18T13:30:22;4.25;;;1.75;;
51521;SDS011;37608;39.766;2.718;2022-08-18T13:32:47;3.10;;;1.23;;
51521;SDS011;37608;39.766;2.718;2022-08-18T13:35:13;8.45;;;1.67;;
51521;SDS011;37608;39.766;2.718;2022-08-18T13:37:38;7.60;;;2.03;;
51521;SDS011;37608;39.766;2.718;2022-08-18T13:40:05;1.30;;;0.70;;
51521;SDS011;37608;39.766;2.718;2022-08-18T13:42:30;3.97;;;1.42;;
51521;SDS011;37608;39.766;2.718;2022-08-18T13:45:04;3.03;;;0.98;;
51521;SDS011;37608;39.766;2.718;2022-08-18T13:47:30;10.20;;;1.40;;
51521;SDS011;37608;39.766;2.718;2022-08-18T13:49:56;1.77;;;0.98;;
51521;SDS011;37608;39.766;2.718;2022-08-18T13:52:21;3.10;;;1.73;;
51521;SDS011;37608;39.766;2.718;2022-08-18T13:54:46;0.68;;;0.50;;
51521;SDS011;37608;39.766;2.718;2022-08-18T13:57:12;1.58;;;0.77;;
51521;SDS011;37608;39.766;2.718;2022-08-18T13:59:37;1.67;;;0.90;;
51521;SDS011;37608;39.766;2.718;2022-08-18T14:02:04;0.73;;;0.57;;
51521;SDS011;37608;39.766;2.718;2022-08-18T14:04:29;1.10;;;0.68;;
51521;SDS011;37608;39.766;2.718;2022-08-18T14:06:55;2.47;;;1.27;;
51521;SDS011;37608;39.766;2.718;2022-08-18T14:09:20;2.40;;;0.52;;
51521;SDS011;37608;39.766;2.718;2022-08-18T14:11:46;5.13;;;2.75;;
51521;SDS011;37608;39.766;2.718;2022-08-18T14:14:11;5.03;;;3.38;;
51521;SDS011;37608;39.766;2.718;2022-08-18T14:16:36;3.38;;;1.52;;
51521;SDS011;37608;39.766;2.718;2022-08-18T14:19:02;5.97;;;1.25;;
51521;SDS011;37608;39.766;2.718;2022-08-18T14:21:47;5.80;;;1.42;;
51521;SDS011;37608;39.766;2.718;2022-08-18T14:24:31;2.13;;;0.88;;
51521;SDS011;37608;39.766;2.718;2022-08-18T14:27:16;2.45;;;1.17;;
51521;SDS011;37608;39.766;2.718;2022-08-18T14:29:41;4.07;;;2.60;;
51521;SDS011;37608;39.766;2.718;2022-08-18T14:32:07;6.15;;;1.83;;
51521;SDS011;37608;39.766;2.718;2022-08-18T14:34:33;2.35;;;1.08;;
51521;SDS011;37608;39.766;2.718;2022-08-18T14:36:59;4.65;;;1.60;;
51521;SDS011;37608;39.766;2.718;2022-08-18T14:39:25;6.45;;;1.60;;
51521;SDS011;37608;39.766;2.718;2022-08-18T14:41:50;4.18;;;1.02;;
51521;SDS011;37608;39.766;2.718;2022-08-18T14:44:15;5.65;;;0.80;;
51521;SDS011;37608;39.766;2.718;2022-08-18T14:46:41;8.25;;;1.67;;
51521;SDS011;37608;39.766;2.718;2022-08-18T14:49:12;12.05;;;1.88;;
51521;SDS011;37608;39.766;2.718;2022-08-18T14:51:37;6.25;;;0.60;;
51521;SDS011;37608;39.766;2.718;2022-08-18T14:54:07;1.25;;;0.45;;
51521;SDS011;37608;39.766;2.718;2022-08-18T14:56:32;6.03;;;1.63;;
51521;SDS011;37608;39.766;2.718;2022-08-18T14:58:58;6.85;;;1.60;;
51521;SDS011;37608;39.766;2.718;2022-08-18T15:01:23;1.77;;;0.63;;
51521;SDS011;37608;39.766;2.718;2022-08-18T15:03:48;4.55;;;0.60;;
51521;SDS011;37608;39.766;2.718;2022-08-18T15:06:14;7.40;;;1.55;;
51521;SDS011;37608;39.766;2.718;2022-08-18T15:08:39;0.65;;;0.38;;
51521;SDS011;37608;39.766;2.718;2022-08-18T15:11:05;6.22;;;1.20;;
51521;SDS011;37608;39.766;2.718;2022-08-18T15:13:30;0.65;;;0.35;;
51521;SDS011;37608;39.766;2.718;2022-08-18T15:15:56;1.10;;;0.50;;
51521;SDS011;37608;39.766;2.718;2022-08-18T15:18:21;0.70;;;0.57;;
51521;SDS011;37608;39.766;2.718;2022-08-18T15:20:48;1.10;;;0.40;;
51521;SDS011;37608;39.766;2.718;2022-08-18T15:23:32;0.75;;;0.47;;
51521;SDS011;37608;39.766;2.718;2022-08-18T15:26:20;1.75;;;0.90;;
51521;SDS011;37608;39.766;2.718;2022-08-18T15:28:46;3.00;;;1.52;;
51521;SDS011;37608;39.766;2.718;2022-08-18T15:31:11;2.10;;;1.27;;
51521;SDS011;37608;39.766;2.718;2022-08-18T15:33:37;0.40;;;0.38;;
51521;SDS011;37608;39.766;2.718;2022-08-18T15:36:02;5.05;;;0.85;;
51521;SDS011;37608;39.766;2.718;2022-08-18T15:38:28;2.50;;;0.68;;
51521;SDS011;37608;39.766;2.718;2022-08-18T15:40:57;1.00;;;0.57;;
51521;SDS011;37608;39.766;2.718;2022-08-18T15:43:27;0.70;;;0.30;;
51521;SDS011;37608;39.766;2.718;2022-08-18T15:45:53;8.13;;;3.23;;
51521;SDS011;37608;39.766;2.718;2022-08-18T15:48:19;4.25;;;0.65;;
51521;SDS011;37608;39.766;2.718;2022-08-18T15:50:45;3.05;;;1.00;;
51521;SDS011;37608;39.766;2.718;2022-08-18T15:53:13;0.50;;;0.30;;
51521;SDS011;37608;39.766;2.718;2022-08-18T15:55:39;1.08;;;0.30;;
51521;SDS011;37608;39.766;2.718;2022-08-18T15:58:05;3.60;;;1.55;;
51521;SDS011;37608;39.766;2.718;2022-08-18T16:00:30;2.35;;;0.43;;
51521;SDS011;37608;39.766;2.718;2022-08-18T16:03:00;3.70;;;1.27;;
51521;SDS011;37608;39.766;2.718;2022-08-18T16:05:27;1.50;;;0.40;;
51521;SDS011;37608;39.766;2.718;2022-08-18T16:07:53;4.97;;;0.65;;
51521;SDS011;37608;39.766;2.718;2022-08-18T16:10:20;2.65;;;1.67;;
51521;SDS011;37608;39.766;2.718;2022-08-18T16:12:46;2.58;;;1.17;;
51521;SDS011;37608;39.766;2.718;2022-08-18T16:15:12;3.22;;;0.70;;
51521;SDS011;37608;39.766;2.718;2022-08-18T16:17:38;4.80;;;1.30;;
51521;SDS011;37608;39.766;2.718;2022-08-18T16:20:04;0.52;;;0.40;;
51521;SDS011;37608;39.766;2.718;2022-08-18T16:22:29;1.15;;;0.25;;
51521;SDS011;37608;39.766;2.718;2022-08-18T16:24:57;6.82;;;1.27;;
51521;SDS011;37608;39.766;2.718;2022-08-18T16:27:22;4.65;;;1.20;;
51521;SDS011;37608;39.766;2.718;2022-08-18T16:29:47;5.22;;;3.97;;
51521;SDS011;37608;39.766;2.718;2022-08-18T16:32:13;6.22;;;1.55;;
51521;SDS011;37608;39.766;2.718;2022-08-18T16:34:38;1.40;;;0.60;;
51521;SDS011;37608;39.766;2.718;2022-08-18T16:37:05;4.15;;;1.15;;
51521;SDS011;37608;39.766;2.718;2022-08-18T16:39:33;7.18;;;1.80;;
51521;SDS011;37608;39.766;2.718;2022-08-18T16:41:58;0.80;;;0.60;;
51521;SDS011;37608;39.766;2.718;2022-08-18T16:44:24;0.40;;;0.28;;
51521;SDS011;37608;39.766;2.718;2022-08-18T16:46:50;2.17;;;1.30;;
51521;SDS011;37608;39.766;2.718;2022-08-18T16:49:15;3.22;;;1.15;;
51521;SDS011;37608;39.766;2.718;2022-08-18T16:51:41;2.72;;;1.45;;
51521;SDS011;37608;39.766;2.718;2022-08-18T16:54:08;2.45;;;0.98;;
51521;SDS011;37608;39.766;2.718;2022-08-18T16:56:34;2.08;;;0.45;;
51521;SDS011;37608;39.766;2.718;2022-08-18T16:59:00;3.33;;;1.13;;
51521;SDS011;37608;39.766;2.718;2022-08-18T17:01:44;2.53;;;1.80;;
51521;SDS011;37608;39.766;2.718;2022-08-18T17:04:29;4.13;;;0.93;;
51521;SDS011;37608;39.766;2.718;2022-08-18T17:06:58;1.42;;;0.55;;
51521;SDS011;37608;39.766;2.718;2022-08-18T17:09:24;7.18;;;1.63;;
51521;SDS011;37608;39.766;2.718;2022-08-18T17:11:50;12.27;;;1.98;;
51521;SDS011;37608;39.766;2.718;2022-08-18T17:14:15;4.10;;;0.98;;
51521;SDS011;37608;39.766;2.718;2022-08-18T17:16:41;3.25;;;0.88;;
51521;SDS011;37608;39.766;2.718;2022-08-18T17:19:06;4.10;;;1.58;;
51521;SDS011;37608;39.766;2.718;2022-08-18T17:21:32;7.55;;;0.80;;